createdAt,value
2019-04-29T00:00:25.601Z,0.00
2019-04-29T00:01:01.207Z,0.00
2019-04-29T00:01:36.308Z,0.00
2019-04-29T00:02:11.635Z,0.00
2019-04-29T00:02:47.195Z,0.00
2019-04-29T00:03:22.394Z,0.00
2019-04-29T00:03:57.675Z,0.00
2019-04-29T00:04:32.894Z,0.00
2019-04-29T00:05:08.378Z,0.00
2019-04-29T00:05:43.862Z,0.00
2019-04-29T00:06:19.242Z,0.00
2019-04-29T00:06:54.589Z,0.00
2019-04-29T00:07:29.771Z,0.00
2019-04-29T00:08:05.083Z,0.00
2019-04-29T00:08:40.347Z,0.00
2019-04-29T00:09:16.044Z,0.00
2019-04-29T00:09:51.718Z,0.00
2019-04-29T00:10:27.030Z,0.00
2019-04-29T00:11:02.314Z,0.00
2019-04-29T00:11:37.644Z,0.00
2019-04-29T00:12:13.329Z,0.00
2019-04-29T00:12:48.756Z,0.00
2019-04-29T00:13:24.232Z,0.00
2019-04-29T00:13:59.536Z,0.00
2019-04-29T00:14:34.897Z,0.00
2019-04-29T00:15:10.315Z,0.00
2019-04-29T00:15:45.492Z,0.00
2019-04-29T00:16:20.958Z,0.00
2019-04-29T00:16:56.556Z,0.00
2019-04-29T00:17:32.067Z,0.00
2019-04-29T00:18:07.333Z,0.00
2019-04-29T00:18:42.551Z,0.00
2019-04-29T00:19:18.005Z,0.00
2019-04-29T00:19:53.334Z,0.00
2019-04-29T00:20:28.732Z,0.00
2019-04-29T00:21:04.329Z,0.00
2019-04-29T00:21:39.517Z,0.00
2019-04-29T00:22:14.948Z,0.00
2019-04-29T00:22:50.318Z,0.00
2019-04-29T00:23:25.611Z,0.00
2019-04-29T00:24:03.954Z,0.00
2019-04-29T00:24:36.135Z,0.00
2019-04-29T00:25:11.304Z,0.00
2019-04-29T00:25:46.800Z,0.00
2019-04-29T00:26:22.162Z,0.00
2019-04-29T00:26:57.283Z,0.00
2019-04-29T00:27:32.650Z,0.00
2019-04-29T00:28:08.050Z,0.00
2019-04-29T00:28:43.405Z,0.00
2019-04-29T00:29:18.817Z,0.00
2019-04-29T00:29:53.893Z,0.00
2019-04-29T00:30:29.088Z,0.00
2019-04-29T00:31:04.255Z,0.00
2019-04-29T00:31:39.795Z,0.00
2019-04-29T00:32:15.159Z,0.00
2019-04-29T00:32:50.464Z,0.00
2019-04-29T00:33:25.629Z,0.00
2019-04-29T00:34:01.141Z,0.00
2019-04-29T00:34:36.302Z,0.00
2019-04-29T00:35:11.635Z,0.00
2019-04-29T00:35:46.991Z,0.00
2019-04-29T00:36:22.417Z,0.00
2019-04-29T00:36:57.423Z,0.00
2019-04-29T00:37:32.524Z,0.00
2019-04-29T00:38:07.791Z,0.00
2019-04-29T00:38:43.178Z,0.00
2019-04-29T00:39:18.453Z,0.00
2019-04-29T00:39:53.848Z,0.00
2019-04-29T00:40:28.925Z,0.00
2019-04-29T00:41:04.043Z,0.00
2019-04-29T00:41:39.544Z,0.00
2019-04-29T00:42:14.864Z,0.00
2019-04-29T00:42:50.218Z,0.00
2019-04-29T00:43:25.630Z,0.00
2019-04-29T00:44:01.171Z,0.00
2019-04-29T00:44:36.589Z,0.00
2019-04-29T00:45:11.886Z,0.00
2019-04-29T00:45:47.102Z,0.00
2019-04-29T00:46:22.197Z,0.00
2019-04-29T00:46:57.314Z,0.00
2019-04-29T00:47:32.686Z,0.00
2019-04-29T00:48:08.089Z,0.00
2019-04-29T00:48:43.279Z,0.00
2019-04-29T00:49:18.587Z,0.00
2019-04-29T00:49:53.755Z,0.00
2019-04-29T00:50:28.956Z,0.00
2019-04-29T00:51:04.323Z,0.00
2019-04-29T00:51:39.562Z,0.00
2019-04-29T00:52:14.853Z,0.00
2019-04-29T00:52:50.066Z,0.00
2019-04-29T00:53:25.135Z,0.00
2019-04-29T00:54:00.294Z,0.00
2019-04-29T00:54:35.699Z,0.00
2019-04-29T00:55:10.911Z,0.00
2019-04-29T00:55:45.998Z,0.00
2019-04-29T00:56:21.197Z,0.00
2019-04-29T00:56:56.390Z,0.00
2019-04-29T00:57:31.823Z,0.00
2019-04-29T00:58:07.098Z,0.00
2019-04-29T00:58:42.524Z,0.00
2019-04-29T00:59:17.804Z,0.00
2019-04-29T00:59:53.011Z,0.00
2019-04-29T01:00:28.280Z,0.00
2019-04-29T01:01:03.527Z,0.00
2019-04-29T01:01:38.737Z,0.00
2019-04-29T01:02:14.444Z,0.00
2019-04-29T01:02:49.718Z,0.00
2019-04-29T01:03:25.015Z,0.00
2019-04-29T01:04:00.583Z,0.00
2019-04-29T01:04:35.824Z,0.00
2019-04-29T01:05:11.314Z,0.00
2019-04-29T01:05:46.839Z,0.00
2019-04-29T01:06:22.122Z,0.00
2019-04-29T01:06:57.567Z,0.00
2019-04-29T01:07:32.837Z,0.00
2019-04-29T01:08:08.057Z,0.00
2019-04-29T01:08:43.216Z,0.00
2019-04-29T01:09:18.616Z,0.00
2019-04-29T01:09:54.205Z,0.00
2019-04-29T01:10:29.612Z,0.00
2019-04-29T01:11:05.095Z,0.00
2019-04-29T01:11:40.526Z,0.00
2019-04-29T01:12:15.826Z,0.00
2019-04-29T01:12:51.123Z,0.00
2019-04-29T01:13:26.803Z,0.00
2019-04-29T01:14:02.307Z,0.00
2019-04-29T01:14:37.680Z,0.00
2019-04-29T01:15:12.987Z,0.00
2019-04-29T01:15:48.347Z,0.00
2019-04-29T01:16:23.552Z,0.00
2019-04-29T01:16:59.136Z,0.00
2019-04-29T01:17:34.364Z,0.00
2019-04-29T01:18:09.939Z,0.00
2019-04-29T01:18:45.237Z,0.00
2019-04-29T01:19:20.631Z,0.00
2019-04-29T01:19:55.939Z,0.00
2019-04-29T01:20:31.212Z,0.00
2019-04-29T01:21:06.609Z,0.00
2019-04-29T01:21:41.816Z,0.00
2019-04-29T01:22:17.008Z,0.00
2019-04-29T01:22:52.372Z,0.00
2019-04-29T01:23:27.471Z,0.00
2019-04-29T01:24:02.833Z,0.00
2019-04-29T01:24:38.235Z,0.00
2019-04-29T01:25:13.412Z,0.00
2019-04-29T01:25:48.822Z,0.00
2019-04-29T01:26:24.139Z,0.00
2019-04-29T01:26:59.641Z,0.00
2019-04-29T01:27:35.213Z,0.00
2019-04-29T01:28:10.609Z,0.00
2019-04-29T01:28:45.579Z,0.00
2019-04-29T01:29:21.082Z,0.00
2019-04-29T01:29:56.366Z,0.00
2019-04-29T01:30:31.987Z,0.00
2019-04-29T01:31:07.354Z,0.00
2019-04-29T01:31:42.691Z,0.00
2019-04-29T01:32:18.390Z,0.00
2019-04-29T01:32:53.920Z,0.00
2019-04-29T01:33:29.298Z,0.00
2019-04-29T01:34:04.599Z,0.00
2019-04-29T01:34:40.082Z,0.00
2019-04-29T01:35:15.284Z,0.00
2019-04-29T01:35:50.664Z,0.00
2019-04-29T01:36:25.754Z,0.00
2019-04-29T01:37:01.144Z,0.00
2019-04-29T01:37:36.466Z,0.00
2019-04-29T01:38:11.736Z,0.00
2019-04-29T01:38:48.687Z,0.00
2019-04-29T01:39:22.432Z,0.00
2019-04-29T01:39:57.823Z,0.00
2019-04-29T01:40:32.806Z,0.00
2019-04-29T01:41:08.025Z,0.00
2019-04-29T01:41:43.432Z,0.00
2019-04-29T01:42:18.747Z,0.00
2019-04-29T01:42:57.048Z,0.00
2019-04-29T01:43:32.642Z,0.00
2019-04-29T01:44:07.713Z,0.00
2019-04-29T01:44:43.010Z,0.00
2019-04-29T01:45:18.796Z,0.00
2019-04-29T01:45:53.998Z,0.00
2019-04-29T01:46:29.268Z,0.00
2019-04-29T01:47:04.591Z,0.00
2019-04-29T01:47:39.850Z,0.00
2019-04-29T01:48:15.363Z,0.00
2019-04-29T01:48:50.859Z,0.00
2019-04-29T01:49:26.311Z,0.00
2019-04-29T01:50:01.677Z,0.00
2019-04-29T01:50:36.894Z,0.00
2019-04-29T01:51:12.276Z,0.00
2019-04-29T01:51:47.799Z,0.00
2019-04-29T01:52:23.466Z,0.00
2019-04-29T01:52:59.161Z,0.00
2019-04-29T01:53:34.425Z,0.00
2019-04-29T01:54:09.526Z,0.00
2019-04-29T01:54:44.808Z,0.00
2019-04-29T01:55:20.012Z,0.00
2019-04-29T01:55:55.389Z,0.00
2019-04-29T01:56:30.989Z,0.00
2019-04-29T01:57:06.378Z,0.00
2019-04-29T01:57:41.777Z,0.00
2019-04-29T01:58:16.887Z,0.00
2019-04-29T01:58:52.288Z,0.00
2019-04-29T01:59:27.544Z,0.00
2019-04-29T02:00:02.959Z,0.00
2019-04-29T02:00:38.024Z,0.00
2019-04-29T02:01:13.351Z,0.00
2019-04-29T02:01:48.535Z,0.00
2019-04-29T02:02:23.741Z,0.00
2019-04-29T02:02:59.132Z,0.00
2019-04-29T02:03:34.844Z,0.00
2019-04-29T02:04:10.112Z,0.00
2019-04-29T02:04:45.436Z,0.00
2019-04-29T02:05:20.797Z,0.00
2019-04-29T02:05:56.079Z,0.00
2019-04-29T02:06:31.635Z,0.00
2019-04-29T02:07:07.094Z,0.00
2019-04-29T02:07:42.665Z,0.00
2019-04-29T02:08:18.079Z,0.00
2019-04-29T02:08:53.250Z,0.00
2019-04-29T02:09:28.859Z,0.00
2019-04-29T02:10:04.434Z,0.00
2019-04-29T02:10:39.730Z,0.00
2019-04-29T02:11:15.085Z,0.00
2019-04-29T02:11:50.303Z,0.00
2019-04-29T02:12:25.886Z,0.00
2019-04-29T02:13:01.298Z,0.00
2019-04-29T02:13:36.486Z,0.00
2019-04-29T02:14:12.098Z,0.00
2019-04-29T02:14:47.055Z,0.00
2019-04-29T02:15:22.675Z,0.00
2019-04-29T02:15:58.048Z,0.00
2019-04-29T02:16:33.468Z,0.00
2019-04-29T02:17:08.879Z,0.00
2019-04-29T02:17:44.165Z,0.00
2019-04-29T02:18:19.553Z,0.00
2019-04-29T02:18:54.726Z,0.00
2019-04-29T02:19:29.982Z,0.00
2019-04-29T02:20:05.186Z,0.00
2019-04-29T02:20:40.266Z,0.00
2019-04-29T02:21:15.371Z,0.00
2019-04-29T02:21:50.573Z,0.00
2019-04-29T02:22:25.904Z,0.00
2019-04-29T02:23:01.182Z,0.00
2019-04-29T02:23:36.491Z,0.00
2019-04-29T02:24:11.758Z,0.00
2019-04-29T02:24:47.166Z,0.00
2019-04-29T02:25:22.258Z,0.00
2019-04-29T02:25:57.456Z,0.00
2019-04-29T02:26:32.820Z,0.00
2019-04-29T02:27:07.985Z,0.00
2019-04-29T02:27:43.108Z,0.00
2019-04-29T02:28:18.414Z,0.00
2019-04-29T02:28:53.484Z,0.00
2019-04-29T02:29:28.899Z,0.00
2019-04-29T02:30:04.170Z,0.00
2019-04-29T02:30:39.671Z,0.00
2019-04-29T02:31:14.896Z,0.00
2019-04-29T02:31:50.634Z,0.00
2019-04-29T02:32:25.903Z,0.00
2019-04-29T02:33:01.109Z,0.00
2019-04-29T02:33:36.675Z,0.00
2019-04-29T02:34:12.178Z,0.00
2019-04-29T02:34:47.381Z,0.00
2019-04-29T02:35:22.681Z,0.00
2019-04-29T02:35:57.744Z,0.00
2019-04-29T02:36:32.849Z,0.00
2019-04-29T02:37:08.538Z,0.00
2019-04-29T02:37:43.756Z,0.00
2019-04-29T02:38:19.138Z,0.00
2019-04-29T02:38:54.524Z,0.00
2019-04-29T02:39:29.799Z,0.00
2019-04-29T02:40:04.994Z,0.00
2019-04-29T02:40:40.464Z,0.00
2019-04-29T02:41:15.759Z,0.00
2019-04-29T02:41:51.069Z,0.00
2019-04-29T02:42:26.262Z,0.00
2019-04-29T02:43:01.737Z,0.00
2019-04-29T02:43:37.027Z,0.00
2019-04-29T02:44:12.393Z,0.00
2019-04-29T02:44:47.689Z,0.00
2019-04-29T02:45:23.254Z,0.00
2019-04-29T02:45:58.575Z,0.00
2019-04-29T02:46:33.638Z,0.00
2019-04-29T02:47:09.065Z,0.00
2019-04-29T02:47:44.232Z,0.00
2019-04-29T02:48:19.347Z,0.00
2019-04-29T02:48:54.839Z,0.00
2019-04-29T02:49:30.343Z,0.00
2019-04-29T02:50:05.422Z,0.00
2019-04-29T02:50:40.820Z,0.00
2019-04-29T02:51:16.085Z,0.00
2019-04-29T02:51:51.332Z,0.00
2019-04-29T02:52:26.408Z,0.00
2019-04-29T02:53:01.621Z,0.00
2019-04-29T02:53:36.885Z,0.00
2019-04-29T02:54:12.394Z,0.00
2019-04-29T02:54:47.851Z,0.00
2019-04-29T02:55:23.277Z,0.00
2019-04-29T02:55:58.343Z,0.00
2019-04-29T02:56:33.757Z,0.00
2019-04-29T02:57:09.250Z,0.00
2019-04-29T02:57:44.566Z,0.00
2019-04-29T02:58:20.047Z,0.00
2019-04-29T02:58:55.340Z,0.00
2019-04-29T02:59:30.815Z,0.00
2019-04-29T03:00:06.032Z,0.00
2019-04-29T03:00:41.102Z,0.00
2019-04-29T03:01:16.319Z,0.00
2019-04-29T03:01:52.012Z,0.00
2019-04-29T03:02:27.105Z,0.00
2019-04-29T03:03:02.392Z,0.00
2019-04-29T03:03:37.820Z,0.00
2019-04-29T03:04:13.300Z,0.00
2019-04-29T03:04:48.620Z,0.00
2019-04-29T03:05:23.883Z,0.00
2019-04-29T03:05:59.181Z,0.00
2019-04-29T03:06:34.310Z,0.00
2019-04-29T03:07:09.517Z,0.00
2019-04-29T03:07:45.094Z,0.00
2019-04-29T03:08:20.494Z,0.00
2019-04-29T03:08:55.763Z,0.00
2019-04-29T03:09:31.385Z,0.00
2019-04-29T03:10:06.655Z,0.00
2019-04-29T03:10:41.976Z,0.00
2019-04-29T03:11:17.149Z,0.00
2019-04-29T03:11:52.382Z,0.00
2019-04-29T03:12:27.658Z,0.00
2019-04-29T03:13:03.068Z,0.00
2019-04-29T03:13:38.449Z,0.00
2019-04-29T03:14:13.767Z,0.00
2019-04-29T03:14:48.843Z,0.00
2019-04-29T03:15:24.155Z,0.00
2019-04-29T03:15:59.551Z,0.00
2019-04-29T03:16:34.769Z,0.00
2019-04-29T03:17:10.131Z,0.00
2019-04-29T03:17:45.538Z,0.00
2019-04-29T03:18:20.604Z,0.00
2019-04-29T03:18:56.005Z,0.00
2019-04-29T03:19:31.199Z,0.00
2019-04-29T03:20:06.494Z,0.00
2019-04-29T03:20:41.961Z,0.00
2019-04-29T03:21:17.269Z,0.00
2019-04-29T03:21:52.578Z,0.00
2019-04-29T03:22:27.876Z,0.00
2019-04-29T03:23:03.325Z,0.00
2019-04-29T03:23:38.617Z,0.00
2019-04-29T03:24:13.967Z,0.00
2019-04-29T03:24:49.410Z,0.00
2019-04-29T03:25:24.684Z,0.00
2019-04-29T03:25:59.986Z,0.00
2019-04-29T03:26:35.268Z,0.00
2019-04-29T03:27:10.774Z,0.00
2019-04-29T03:27:46.045Z,0.00
2019-04-29T03:28:21.473Z,0.00
2019-04-29T03:28:56.961Z,0.00
2019-04-29T03:29:32.533Z,0.00
2019-04-29T03:30:07.806Z,0.00
2019-04-29T03:30:43.114Z,0.00
2019-04-29T03:31:18.490Z,0.00
2019-04-29T03:31:53.837Z,0.00
2019-04-29T03:32:29.503Z,0.00
2019-04-29T03:33:04.701Z,0.00
2019-04-29T03:33:40.592Z,0.00
2019-04-29T03:34:16.113Z,0.00
2019-04-29T03:34:51.286Z,0.00
2019-04-29T03:35:26.306Z,4.00
2019-04-29T03:36:01.362Z,4.00
2019-04-29T03:36:36.674Z,4.00
2019-04-29T03:37:12.039Z,4.00
2019-04-29T03:37:47.651Z,4.00
2019-04-29T03:38:22.708Z,4.00
2019-04-29T03:38:58.017Z,0.00
2019-04-29T03:39:33.283Z,4.00
2019-04-29T03:40:08.798Z,4.00
2019-04-29T03:40:44.492Z,4.00
2019-04-29T03:41:19.795Z,4.00
2019-04-29T03:41:55.395Z,8.00
2019-04-29T03:42:30.586Z,4.00
2019-04-29T03:43:05.970Z,4.00
2019-04-29T03:43:41.286Z,8.00
2019-04-29T03:44:16.355Z,8.00
2019-04-29T03:44:51.479Z,4.00
2019-04-29T03:45:26.666Z,8.00
2019-04-29T03:46:01.959Z,12.00
2019-04-29T03:46:37.337Z,8.00
2019-04-29T03:47:12.853Z,12.00
2019-04-29T03:47:48.314Z,12.00
2019-04-29T03:48:23.636Z,12.00
2019-04-29T03:48:58.837Z,16.00
2019-04-29T03:49:34.343Z,16.00
2019-04-29T03:50:09.504Z,20.00
2019-04-29T03:50:45.113Z,20.00
2019-04-29T03:51:20.391Z,16.00
2019-04-29T03:51:56.143Z,20.00
2019-04-29T03:52:31.311Z,20.00
2019-04-29T03:53:06.919Z,24.00
2019-04-29T03:53:42.195Z,24.00
2019-04-29T03:54:17.399Z,24.00
2019-04-29T03:54:52.669Z,32.00
2019-04-29T03:55:38.930Z,32.00
2019-04-29T03:56:03.376Z,32.00
2019-04-29T03:56:39.010Z,36.00
2019-04-29T03:57:14.198Z,40.00
2019-04-29T03:57:49.610Z,40.00
2019-04-29T03:58:25.011Z,44.00
2019-04-29T03:59:00.620Z,44.00
2019-04-29T03:59:35.991Z,48.00
2019-04-29T04:00:11.412Z,48.00
2019-04-29T04:00:46.976Z,52.00
2019-04-29T04:01:22.407Z,56.00
2019-04-29T04:01:57.375Z,60.00
2019-04-29T04:02:32.805Z,64.00
2019-04-29T04:03:08.167Z,68.00
2019-04-29T04:03:43.726Z,72.00
2019-04-29T04:04:19.218Z,72.00
2019-04-29T04:04:55.142Z,80.00
2019-04-29T04:05:30.259Z,84.00
2019-04-29T04:06:05.350Z,84.00
2019-04-29T04:06:40.562Z,92.00
2019-04-29T04:07:15.758Z,96.00
2019-04-29T04:07:50.932Z,100.00
2019-04-29T04:08:26.248Z,104.00
2019-04-29T04:09:05.949Z,112.00
2019-04-29T04:09:37.038Z,116.00
2019-04-29T04:10:12.412Z,120.00
2019-04-29T04:10:47.530Z,124.00
2019-04-29T04:11:22.906Z,132.00
2019-04-29T04:11:58.176Z,136.00
2019-04-29T04:12:33.369Z,140.00
2019-04-29T04:13:08.764Z,148.00
2019-04-29T04:13:44.336Z,156.00
2019-04-29T04:14:19.534Z,164.00
2019-04-29T04:14:55.101Z,168.00
2019-04-29T04:15:30.500Z,176.00
2019-04-29T04:16:05.976Z,184.00
2019-04-29T04:16:41.180Z,188.00
2019-04-29T04:17:20.243Z,196.00
2019-04-29T04:17:51.873Z,208.00
2019-04-29T04:18:27.143Z,216.00
2019-04-29T04:19:02.557Z,224.00
2019-04-29T04:19:37.627Z,232.00
2019-04-29T04:20:12.831Z,236.00
2019-04-29T04:20:48.109Z,248.00
2019-04-29T04:21:24.132Z,252.00
2019-04-29T04:21:59.419Z,260.00
2019-04-29T04:22:34.848Z,268.00
2019-04-29T04:23:10.031Z,276.00
2019-04-29T04:23:45.360Z,280.00
2019-04-29T04:24:20.429Z,288.00
2019-04-29T04:24:55.641Z,296.00
2019-04-29T04:25:31.053Z,300.00
2019-04-29T04:26:06.639Z,308.00
2019-04-29T04:26:41.863Z,316.00
2019-04-29T04:27:17.324Z,324.00
2019-04-29T04:27:52.264Z,336.00
2019-04-29T04:28:27.651Z,344.00
2019-04-29T04:29:02.935Z,356.00
2019-04-29T04:29:38.431Z,368.00
2019-04-29T04:30:13.644Z,376.00
2019-04-29T04:30:49.076Z,388.00
2019-04-29T04:31:24.450Z,400.00
2019-04-29T04:31:59.673Z,416.00
2019-04-29T04:32:35.181Z,420.00
2019-04-29T04:33:10.585Z,428.00
2019-04-29T04:33:45.766Z,436.00
2019-04-29T04:34:21.295Z,448.00
2019-04-29T04:34:56.464Z,460.00
2019-04-29T04:35:31.794Z,468.00
2019-04-29T04:36:06.878Z,476.00
2019-04-29T04:36:42.589Z,492.00
2019-04-29T04:37:17.770Z,500.00
2019-04-29T04:37:53.364Z,508.00
2019-04-29T04:38:28.678Z,520.00
2019-04-29T04:39:03.865Z,528.00
2019-04-29T04:39:39.156Z,536.00
2019-04-29T04:40:14.649Z,540.00
2019-04-29T04:40:50.236Z,552.00
2019-04-29T04:41:25.556Z,564.00
2019-04-29T04:42:00.920Z,576.00
2019-04-29T04:42:36.444Z,584.00
2019-04-29T04:43:11.707Z,600.00
2019-04-29T04:43:47.033Z,612.00
2019-04-29T04:44:22.418Z,620.00
2019-04-29T04:44:57.608Z,624.00
2019-04-29T04:45:32.888Z,628.00
2019-04-29T04:46:08.217Z,636.00
2019-04-29T04:46:43.700Z,644.00
2019-04-29T04:47:18.914Z,660.00
2019-04-29T04:47:54.492Z,680.00
2019-04-29T04:48:29.591Z,704.00
2019-04-29T04:49:05.196Z,732.00
2019-04-29T04:49:40.404Z,764.00
2019-04-29T04:50:15.801Z,784.00
2019-04-29T04:50:50.917Z,804.00
2019-04-29T04:51:25.988Z,816.00
2019-04-29T04:52:01.424Z,828.00
2019-04-29T04:52:36.685Z,816.00
2019-04-29T04:53:11.996Z,832.00
2019-04-29T04:53:47.463Z,860.00
2019-04-29T04:54:22.910Z,868.00
2019-04-29T04:54:58.302Z,880.00
2019-04-29T04:55:33.507Z,892.00
2019-04-29T04:56:09.091Z,904.00
2019-04-29T04:56:44.189Z,916.00
2019-04-29T04:57:19.464Z,936.00
2019-04-29T04:57:54.876Z,952.00
2019-04-29T04:58:30.548Z,960.00
2019-04-29T04:59:05.839Z,964.00
2019-04-29T04:59:41.381Z,968.00
2019-04-29T05:00:19.821Z,964.00
2019-04-29T05:00:52.006Z,988.00
2019-04-29T05:01:27.520Z,1000.00
2019-04-29T05:02:02.804Z,1012.00
2019-04-29T05:02:38.320Z,1032.00
2019-04-29T05:03:13.698Z,1052.00
2019-04-29T05:03:48.893Z,1072.00
2019-04-29T05:04:24.292Z,1120.00
2019-04-29T05:04:59.719Z,1156.00
2019-04-29T05:05:35.299Z,1180.00
2019-04-29T05:06:10.494Z,1204.00
2019-04-29T05:06:45.772Z,1228.00
2019-04-29T05:07:21.368Z,1260.00
2019-04-29T05:07:56.854Z,1288.00
2019-04-29T05:08:32.166Z,1296.00
2019-04-29T05:09:07.651Z,1324.00
2019-04-29T05:09:43.284Z,1348.00
2019-04-29T05:10:18.378Z,1380.00
2019-04-29T05:10:53.669Z,1408.00
2019-04-29T05:11:29.034Z,1448.00
2019-04-29T05:12:04.147Z,1480.00
2019-04-29T05:12:39.261Z,1520.00
2019-04-29T05:13:27.338Z,1588.00
2019-04-29T05:13:50.235Z,1660.00
2019-04-29T05:14:25.457Z,1724.00
2019-04-29T05:15:00.824Z,1768.00
2019-04-29T05:15:36.374Z,1804.00
2019-04-29T05:16:11.775Z,1832.00
2019-04-29T05:16:47.089Z,1836.00
2019-04-29T05:17:22.451Z,1844.00
2019-04-29T05:17:57.867Z,1828.00
2019-04-29T05:18:32.939Z,1808.00
2019-04-29T05:19:08.161Z,1788.00
2019-04-29T05:19:43.437Z,1744.00
2019-04-29T05:20:18.856Z,1696.00
2019-04-29T05:20:54.267Z,1660.00
2019-04-29T05:21:29.890Z,1640.00
2019-04-29T05:22:05.391Z,1632.00
2019-04-29T05:22:41.099Z,1636.00
2019-04-29T05:23:16.682Z,1636.00
2019-04-29T05:23:52.311Z,1648.00
2019-04-29T05:24:27.895Z,1680.00
2019-04-29T05:25:03.221Z,1744.00
2019-04-29T05:25:38.692Z,1828.00
2019-04-29T05:26:14.126Z,1912.00
2019-04-29T05:26:49.320Z,1996.00
2019-04-29T05:27:24.645Z,2076.00
2019-04-29T05:28:00.224Z,2156.00
2019-04-29T05:28:35.778Z,2228.00
2019-04-29T05:29:11.170Z,2300.00
2019-04-29T05:29:46.651Z,2352.00
2019-04-29T05:30:21.808Z,2380.00
2019-04-29T05:30:57.274Z,2404.00
2019-04-29T05:31:32.790Z,2444.00
2019-04-29T05:32:08.414Z,2504.00
2019-04-29T05:32:43.609Z,2568.00
2019-04-29T05:33:18.831Z,2636.00
2019-04-29T05:33:54.275Z,2688.00
2019-04-29T05:34:29.788Z,2736.00
2019-04-29T05:35:04.959Z,2760.00
2019-04-29T05:35:40.504Z,2784.00
2019-04-29T05:36:15.605Z,2800.00
2019-04-29T05:36:50.877Z,2816.00
2019-04-29T05:37:26.381Z,2828.00
2019-04-29T05:38:01.610Z,2816.00
2019-04-29T05:38:37.103Z,2796.00
2019-04-29T05:39:12.524Z,2788.00
2019-04-29T05:39:47.822Z,2800.00
2019-04-29T05:40:23.131Z,2812.00
2019-04-29T05:40:58.432Z,2832.00
2019-04-29T05:41:34.828Z,2856.00
2019-04-29T05:42:16.003Z,2884.00
2019-04-29T05:42:48.320Z,2944.00
2019-04-29T05:43:20.031Z,3024.00
2019-04-29T05:43:55.248Z,3128.00
2019-04-29T05:44:30.527Z,3204.00
2019-04-29T05:45:05.731Z,3244.00
2019-04-29T05:45:41.438Z,3288.00
2019-04-29T05:46:17.346Z,3324.00
2019-04-29T05:46:51.870Z,3348.00
2019-04-29T05:47:27.248Z,3372.00
2019-04-29T05:48:02.545Z,3380.00
2019-04-29T05:48:37.970Z,3372.00
2019-04-29T05:49:13.142Z,3384.00
2019-04-29T05:49:48.358Z,3408.00
2019-04-29T05:50:23.349Z,3448.00
2019-04-29T05:50:58.575Z,3544.00
2019-04-29T05:51:34.215Z,3660.00
2019-04-29T05:52:09.625Z,3804.00
2019-04-29T05:52:45.141Z,3972.00
2019-04-29T05:53:20.566Z,4180.00
2019-04-29T05:53:55.949Z,4336.00
2019-04-29T05:54:31.602Z,4476.00
2019-04-29T05:55:09.421Z,4636.00
2019-04-29T05:55:41.780Z,4788.00
2019-04-29T05:56:17.357Z,4800.00
2019-04-29T05:56:52.702Z,4948.00
2019-04-29T05:57:28.122Z,5096.00
2019-04-29T05:58:03.953Z,5244.00
2019-04-29T05:58:39.614Z,5720.00
2019-04-29T05:59:14.299Z,6160.00
2019-04-29T05:59:49.780Z,6560.00
2019-04-29T06:00:25.011Z,6492.00
2019-04-29T06:01:00.058Z,6312.00
2019-04-29T06:01:35.560Z,6476.00
2019-04-29T06:02:10.942Z,6492.00
2019-04-29T06:02:46.453Z,6444.00
2019-04-29T06:03:21.763Z,6524.00
2019-04-29T06:03:57.370Z,6512.00
2019-04-29T06:04:32.662Z,6408.00
2019-04-29T06:05:08.008Z,6424.00
2019-04-29T06:05:43.416Z,6792.00
2019-04-29T06:06:18.759Z,7148.00
2019-04-29T06:06:54.007Z,7184.00
2019-04-29T06:07:29.413Z,7012.00
2019-04-29T06:08:04.896Z,6844.00
2019-04-29T06:08:40.693Z,6524.00
2019-04-29T06:09:16.670Z,7016.00
2019-04-29T06:09:51.363Z,7580.00
2019-04-29T06:10:26.660Z,8352.00
2019-04-29T06:11:01.964Z,8992.00
2019-04-29T06:11:37.462Z,8996.00
2019-04-29T06:12:12.694Z,9132.00
2019-04-29T06:12:48.031Z,9216.00
2019-04-29T06:13:23.330Z,9224.00
2019-04-29T06:13:58.640Z,9208.00
2019-04-29T06:14:34.178Z,9196.00
2019-04-29T06:15:09.575Z,9608.00
2019-04-29T06:15:45.096Z,10696.00
2019-04-29T06:16:21.050Z,13372.00
2019-04-29T06:16:57.505Z,16608.00
2019-04-29T06:17:31.056Z,19008.00
2019-04-29T06:18:06.369Z,20896.00
2019-04-29T06:18:41.786Z,23264.00
2019-04-29T06:19:17.343Z,26848.00
2019-04-29T06:19:52.753Z,30272.00
2019-04-29T06:20:28.279Z,31520.00
2019-04-29T06:21:09.211Z,30912.00
2019-04-29T06:21:39.207Z,30208.00
2019-04-29T06:22:14.596Z,29792.00
2019-04-29T06:22:49.916Z,29696.00
2019-04-29T06:23:25.102Z,30720.00
2019-04-29T06:24:04.481Z,32096.00
2019-04-29T06:24:36.853Z,32192.00
2019-04-29T06:25:11.294Z,32000.00
2019-04-29T06:25:46.712Z,34752.00
2019-04-29T06:26:22.002Z,35104.00
2019-04-29T06:26:57.119Z,34176.00
2019-04-29T06:27:33.367Z,33824.00
2019-04-29T06:28:07.556Z,34240.00
2019-04-29T06:28:43.077Z,36704.00
2019-04-29T06:29:18.344Z,34176.00
2019-04-29T06:29:53.776Z,32000.00
2019-04-29T06:30:29.152Z,33152.00
2019-04-29T06:31:04.996Z,35456.00
2019-04-29T06:31:40.470Z,35104.00
2019-04-29T06:32:15.886Z,34016.00
2019-04-29T06:32:52.235Z,29376.00
2019-04-29T06:33:29.142Z,23488.00
2019-04-29T06:34:05.180Z,18432.00
2019-04-29T06:34:40.166Z,18784.00
2019-04-29T06:35:14.156Z,23040.00
2019-04-29T06:35:49.399Z,22208.00
2019-04-29T06:36:24.864Z,17056.00
2019-04-29T06:36:59.967Z,11732.00
2019-04-29T06:37:35.687Z,9872.00
2019-04-29T06:38:10.906Z,8588.00
2019-04-29T06:38:46.315Z,8272.00
2019-04-29T06:39:21.956Z,9580.00
2019-04-29T06:39:57.545Z,10332.00
2019-04-29T06:40:35.402Z,10772.00
2019-04-29T06:41:09.742Z,12432.00
2019-04-29T06:41:45.196Z,13660.00
2019-04-29T06:42:19.537Z,15848.00
2019-04-29T06:42:55.217Z,16992.00
2019-04-29T06:43:30.684Z,16192.00
2019-04-29T06:44:06.720Z,13240.00
2019-04-29T06:44:40.202Z,10548.00
2019-04-29T06:45:15.728Z,10976.00
2019-04-29T06:45:51.157Z,15264.00
2019-04-29T06:46:26.569Z,20544.00
2019-04-29T06:47:01.870Z,25984.00
2019-04-29T06:47:37.275Z,26016.00
2019-04-29T06:48:12.755Z,24896.00
2019-04-29T06:48:48.265Z,25888.00
2019-04-29T06:49:23.765Z,29472.00
2019-04-29T06:49:58.983Z,32768.00
2019-04-29T06:50:34.323Z,30272.00
2019-04-29T06:51:09.687Z,26112.00
2019-04-29T06:51:45.074Z,23104.00
2019-04-29T06:52:20.407Z,17696.00
2019-04-29T06:52:55.796Z,12888.00
2019-04-29T06:53:31.331Z,10376.00
2019-04-29T06:54:06.727Z,11120.00
2019-04-29T06:54:42.249Z,11480.00
2019-04-29T06:55:17.523Z,10812.00
2019-04-29T06:55:53.339Z,10224.00
2019-04-29T06:56:28.768Z,9964.00
2019-04-29T06:57:04.210Z,10672.00
2019-04-29T06:57:39.886Z,11096.00
2019-04-29T06:58:15.191Z,11136.00
2019-04-29T06:58:50.587Z,10588.00
2019-04-29T06:59:25.717Z,9728.00
2019-04-29T07:00:01.004Z,9732.00
2019-04-29T07:00:36.339Z,9924.00
2019-04-29T07:01:11.931Z,9764.00
2019-04-29T07:01:47.574Z,9432.00
2019-04-29T07:02:23.070Z,8808.00
2019-04-29T07:02:58.469Z,8468.00
2019-04-29T07:03:34.063Z,8088.00
2019-04-29T07:04:09.370Z,7592.00
2019-04-29T07:04:44.852Z,7356.00
2019-04-29T07:05:20.158Z,7076.00
2019-04-29T07:05:55.653Z,7140.00
2019-04-29T07:06:30.891Z,7280.00
2019-04-29T07:07:06.120Z,7260.00
2019-04-29T07:07:41.831Z,7292.00
2019-04-29T07:08:17.029Z,7272.00
2019-04-29T07:08:52.614Z,7260.00
2019-04-29T07:09:28.678Z,7276.00
2019-04-29T07:10:04.290Z,7344.00
2019-04-29T07:10:39.486Z,7248.00
2019-04-29T07:11:14.961Z,7356.00
2019-04-29T07:11:50.361Z,7248.00
2019-04-29T07:12:25.670Z,7392.00
2019-04-29T07:13:01.093Z,7576.00
2019-04-29T07:13:36.236Z,7788.00
2019-04-29T07:14:11.621Z,7988.00
2019-04-29T07:14:46.948Z,8208.00
2019-04-29T07:15:22.266Z,8380.00
2019-04-29T07:15:57.505Z,8520.00
2019-04-29T07:16:33.004Z,8676.00
2019-04-29T07:17:08.321Z,8856.00
2019-04-29T07:17:43.833Z,9044.00
2019-04-29T07:18:19.255Z,9360.00
2019-04-29T07:18:54.635Z,9892.00
2019-04-29T07:19:30.038Z,10764.00
2019-04-29T07:20:05.218Z,10616.00
2019-04-29T07:20:41.189Z,10420.00
2019-04-29T07:21:16.726Z,10288.00
2019-04-29T07:21:54.992Z,10268.00
2019-04-29T07:22:30.918Z,10184.00
2019-04-29T07:23:03.470Z,10384.00
2019-04-29T07:23:38.878Z,10780.00
2019-04-29T07:24:14.211Z,10032.00
2019-04-29T07:24:49.518Z,10416.00
2019-04-29T07:25:28.629Z,10136.00
2019-04-29T07:26:00.409Z,10508.00
2019-04-29T07:26:36.143Z,10424.00
2019-04-29T07:27:11.439Z,10464.00
2019-04-29T07:27:46.756Z,10780.00
2019-04-29T07:28:22.541Z,11760.00
2019-04-29T07:28:57.850Z,11372.00
2019-04-29T07:29:33.378Z,10568.00